createdAt,value
2022-08-30T00:01:28.515Z,100354.86
2022-08-30T00:03:58.597Z,100355.52
2022-08-30T00:06:30.051Z,100359.46
2022-08-30T00:09:00.104Z,100357.70
2022-08-30T00:11:29.558Z,100359.77
2022-08-30T00:14:02.606Z,100364.64
2022-08-30T00:16:32.473Z,100368.08
2022-08-30T00:19:02.695Z,100370.25
2022-08-30T00:21:33.464Z,100373.11
2022-08-30T00:24:03.414Z,100373.73
2022-08-30T00:26:45.892Z,100369.83
2022-08-30T00:29:15.666Z,100372.58
2022-08-30T00:31:58.329Z,100373.33
2022-08-30T00:34:41.310Z,100371.30
2022-08-30T00:37:10.933Z,100374.08
2022-08-30T00:39:40.061Z,100373.83
2022-08-30T00:42:10.463Z,100378.52
2022-08-30T00:44:40.756Z,100372.80
2022-08-30T00:47:10.687Z,100376.68
2022-08-30T00:49:57.146Z,100369.54
2022-08-30T00:52:26.195Z,100375.30
2022-08-30T00:54:55.790Z,100376.40
2022-08-30T00:57:25.132Z,100382.27
2022-08-30T00:59:54.946Z,100382.27
2022-08-30T01:02:26.064Z,100383.27
2022-08-30T01:04:55.966Z,100383.70
2022-08-30T01:07:27.191Z,100385.14
2022-08-30T01:09:57.649Z,100390.30
2022-08-30T01:12:27.754Z,100391.21
2022-08-30T01:14:58.984Z,100393.11
2022-08-30T01:17:30.510Z,100388.73
2022-08-30T01:20:13.140Z,100393.04
2022-08-30T01:23:03.338Z,100389.61
2022-08-30T01:25:36.149Z,100391.14
2022-08-30T01:28:11.454Z,100388.21
2022-08-30T01:30:47.283Z,100391.09
2022-08-30T01:33:16.943Z,100391.92
2022-08-30T01:35:55.128Z,100393.59
2022-08-30T01:38:29.254Z,100391.38
2022-08-30T01:41:11.389Z,100384.06
2022-08-30T01:43:41.383Z,100385.53
2022-08-30T01:46:12.191Z,100386.82
2022-08-30T01:48:50.238Z,100384.38
2022-08-30T01:51:28.229Z,100386.96
2022-08-30T01:53:57.975Z,100383.09
2022-08-30T01:56:41.051Z,100384.30
2022-08-30T01:59:10.318Z,100383.56
2022-08-30T02:01:40.173Z,100375.17
2022-08-30T02:04:13.413Z,100375.94
2022-08-30T02:06:45.206Z,100375.54
2022-08-30T02:09:14.421Z,100374.31
2022-08-30T02:11:48.687Z,100369.23
2022-08-30T02:14:21.479Z,100372.42
2022-08-30T02:16:54.264Z,100370.80
2022-08-30T02:19:24.128Z,100379.08
2022-08-30T02:21:55.132Z,100375.34
2022-08-30T02:24:24.411Z,100375.23
2022-08-30T02:26:54.091Z,100375.86
2022-08-30T02:29:25.240Z,100379.10
2022-08-30T02:31:54.754Z,100381.60
2022-08-30T02:34:27.241Z,100384.96
2022-08-30T02:36:59.129Z,100384.45
2022-08-30T02:39:29.636Z,100381.65
2022-08-30T02:41:58.713Z,100381.03
2022-08-30T02:44:28.613Z,100381.11
2022-08-30T02:46:58.211Z,100380.64
2022-08-30T02:49:33.713Z,100383.98
2022-08-30T02:52:05.650Z,100381.28
2022-08-30T02:54:35.853Z,100383.34
2022-08-30T02:57:06.873Z,100380.89
2022-08-30T02:59:38.143Z,100382.15
2022-08-30T03:02:11.629Z,100378.60
2022-08-30T03:04:44.471Z,100382.83
2022-08-30T03:07:14.347Z,100386.17
2022-08-30T03:09:43.860Z,100390.20
2022-08-30T03:12:16.130Z,100390.86
2022-08-30T03:14:46.183Z,100390.61
2022-08-30T03:17:17.643Z,100388.92
2022-08-30T03:19:47.081Z,100390.73
2022-08-30T03:22:30.347Z,100388.20
2022-08-30T03:25:00.396Z,100391.02
2022-08-30T03:27:33.066Z,100392.98
2022-08-30T03:30:03.079Z,100392.30
2022-08-30T03:32:33.327Z,100392.56
2022-08-30T03:35:02.812Z,100395.64
2022-08-30T03:37:32.857Z,100394.73
2022-08-30T03:40:08.197Z,100397.38
2022-08-30T03:42:43.390Z,100394.40
2022-08-30T03:45:15.068Z,100403.11
2022-08-30T03:47:45.297Z,100404.26
2022-08-30T03:50:16.555Z,100398.60
2022-08-30T03:52:49.433Z,100399.18
2022-08-30T03:55:18.790Z,100402.55
2022-08-30T03:57:48.996Z,100406.13
2022-08-30T04:00:21.676Z,100406.19
2022-08-30T04:02:51.155Z,100407.31
2022-08-30T04:05:21.100Z,100408.49
2022-08-30T04:07:50.976Z,100413.20
2022-08-30T04:10:23.656Z,100415.73
2022-08-30T04:12:53.412Z,100413.88
2022-08-30T04:15:25.855Z,100415.67
2022-08-30T04:17:58.329Z,100417.23
2022-08-30T04:20:30.268Z,100419.16
2022-08-30T04:23:00.405Z,100422.58
2022-08-30T04:25:29.842Z,100422.94
2022-08-30T04:28:05.011Z,100431.80
2022-08-30T04:30:41.051Z,100428.89
2022-08-30T04:33:15.330Z,100428.07
2022-08-30T04:35:50.290Z,100430.27
2022-08-30T04:38:29.876Z,100432.55
2022-08-30T04:41:05.103Z,100433.48
2022-08-30T04:43:36.980Z,100436.42
2022-08-30T04:46:09.376Z,100438.98
2022-08-30T04:48:38.953Z,100441.69
2022-08-30T04:51:10.781Z,100447.22
2022-08-30T04:53:44.565Z,100449.36
2022-08-30T04:56:17.187Z,100447.96
2022-08-30T04:58:48.166Z,100451.41
2022-08-30T05:01:21.185Z,100452.16
2022-08-30T05:03:54.254Z,100448.72
2022-08-30T05:06:26.025Z,100450.92
2022-08-30T05:09:12.201Z,100451.64
2022-08-30T05:11:43.581Z,100452.21
2022-08-30T05:14:13.425Z,100454.67
2022-08-30T05:16:43.177Z,100453.20
2022-08-30T05:19:12.949Z,100456.66
2022-08-30T05:21:42.758Z,100457.59
2022-08-30T05:24:12.365Z,100458.40
2022-08-30T05:26:41.511Z,100461.10
2022-08-30T05:29:11.097Z,100465.98
2022-08-30T05:31:40.033Z,100464.34
2022-08-30T05:34:18.728Z,100463.02
2022-08-30T05:36:50.268Z,100463.02
2022-08-30T05:39:21.011Z,100461.70
2022-08-30T05:41:57.378Z,100459.65
2022-08-30T05:44:26.971Z,100461.77
2022-08-30T05:46:56.132Z,100458.88
2022-08-30T05:49:25.190Z,100460.20
2022-08-30T05:52:44.843Z,100460.58
2022-08-30T05:56:11.376Z,100456.52
2022-08-30T06:03:01.955Z,100461.14
2022-08-30T06:16:57.033Z,100476.38
2022-08-30T06:20:19.071Z,100476.39
2022-08-30T06:26:44.931Z,100484.95
2022-08-30T06:30:08.984Z,100487.36
2022-08-30T06:33:44.469Z,100488.31
2022-08-30T11:36:46.125Z,100633.01
2022-08-30T11:39:45.388Z,100639.49
2022-08-30T11:46:45.527Z,100646.50
2022-08-30T11:49:19.152Z,100642.09
2022-08-30T11:52:27.115Z,100645.20
2022-08-30T11:55:26.256Z,100643.79
2022-08-30T11:58:18.238Z,100642.14
2022-08-30T12:00:52.555Z,100643.11
2022-08-30T12:03:34.249Z,100639.63
2022-08-30T12:06:10.003Z,100647.10
2022-08-30T12:08:57.996Z,100641.61
2022-08-30T12:12:05.654Z,100642.62
2022-08-30T12:14:56.486Z,100639.50
2022-08-30T12:17:51.563Z,100641.85
2022-08-30T12:20:48.074Z,100635.98
2022-08-30T12:23:26.822Z,100627.69
2022-08-30T12:26:20.222Z,100635.02
2022-08-30T12:29:17.267Z,100631.73
2022-08-30T12:32:22.780Z,100623.24
2022-08-30T12:35:00.047Z,100630.40
2022-08-30T12:37:33.772Z,100636.20
2022-08-30T12:40:09.294Z,100636.30
2022-08-30T12:42:41.863Z,100631.37
2022-08-30T12:45:18.843Z,100632.95
2022-08-30T12:47:53.751Z,100629.70
2022-08-30T12:50:30.687Z,100629.18
2022-08-30T12:53:13.937Z,100626.22
2022-08-30T12:55:57.015Z,100629.57
2022-08-30T13:01:36.571Z,100636.46
2022-08-30T13:04:23.659Z,100634.49
2022-08-30T13:07:06.215Z,100631.94
2022-08-30T13:09:39.396Z,100633.81
2022-08-30T13:12:22.537Z,100631.11
2022-08-30T13:14:54.335Z,100632.09
2022-08-30T13:17:29.742Z,100628.55
2022-08-30T13:20:07.881Z,100625.96
2022-08-30T13:23:01.088Z,100625.50
2022-08-30T13:25:32.969Z,100626.46
2022-08-30T13:28:03.495Z,100627.15
2022-08-30T13:30:46.095Z,100626.77
2022-08-30T13:33:17.490Z,100621.17
2022-08-30T13:35:49.140Z,100621.61
2022-08-30T13:38:20.011Z,100623.61
2022-08-30T13:40:49.782Z,100620.98
2022-08-30T13:43:22.274Z,100616.55
2022-08-30T13:45:52.352Z,100618.80
2022-08-30T13:48:24.871Z,100621.83
2022-08-30T13:50:56.166Z,100630.63
2022-08-30T13:56:19.485Z,100636.52
2022-08-30T13:58:53.173Z,100632.06
2022-08-30T14:01:22.481Z,100636.50
2022-08-30T14:09:40.262Z,100636.40
2022-08-30T14:12:54.021Z,100639.02
2022-08-30T14:15:31.475Z,100638.83
2022-08-30T14:18:22.614Z,100640.87
2022-08-30T14:22:01.775Z,100641.86
2022-08-30T14:24:48.881Z,100645.11
2022-08-30T14:28:30.411Z,100641.02
2022-08-30T14:31:13.539Z,100644.70
2022-08-30T14:33:47.934Z,100642.10
2022-08-30T14:36:21.453Z,100641.74
2022-08-30T14:38:51.540Z,100643.41
2022-08-30T14:41:20.295Z,100641.65
2022-08-30T14:43:51.490Z,100642.40
2022-08-30T14:46:20.354Z,100639.45
2022-08-30T14:48:50.409Z,100640.80
2022-08-30T14:51:24.085Z,100640.66
2022-08-30T14:53:55.115Z,100641.06
2022-08-30T14:56:25.002Z,100639.73
2022-08-30T14:59:00.606Z,100639.65
2022-08-30T15:01:30.545Z,100638.90
2022-08-30T15:04:00.511Z,100640.77
2022-08-30T15:06:29.416Z,100645.98
2022-08-30T15:08:59.068Z,100644.93
2022-08-30T15:11:29.604Z,100644.91
2022-08-30T15:13:59.276Z,100642.17
2022-08-30T15:16:35.902Z,100638.74
2022-08-30T15:19:09.428Z,100641.65
2022-08-30T15:21:42.128Z,100641.91
2022-08-30T15:24:29.881Z,100638.86
2022-08-30T15:27:00.669Z,100643.59
2022-08-30T15:29:31.601Z,100644.91
2022-08-30T15:32:02.685Z,100648.53
2022-08-30T15:34:32.070Z,100642.39
2022-08-30T15:37:01.727Z,100643.85
2022-08-30T15:39:32.883Z,100640.86
2022-08-30T15:42:19.436Z,100633.65
2022-08-30T15:44:53.025Z,100625.43
2022-08-30T15:47:24.403Z,100628.79
2022-08-30T15:49:58.561Z,100626.95
2022-08-30T15:52:27.734Z,100628.25
2022-08-30T15:54:56.792Z,100625.05
2022-08-30T15:57:25.957Z,100628.42
2022-08-30T15:59:56.341Z,100624.98
2022-08-30T16:02:28.570Z,100618.08
2022-08-30T16:04:59.354Z,100618.64
2022-08-30T16:07:28.476Z,100616.01
2022-08-30T16:09:57.003Z,100613.88
2022-08-30T16:12:27.084Z,100615.95
2022-08-30T16:14:55.695Z,100617.16
2022-08-30T16:17:38.206Z,100616.45
2022-08-30T16:20:10.036Z,100613.30
2022-08-30T16:22:40.823Z,100615.36
2022-08-30T16:25:16.100Z,100614.66
2022-08-30T16:27:44.843Z,100612.85
2022-08-30T16:30:16.421Z,100614.36
2022-08-30T16:32:46.219Z,100617.36
2022-08-30T16:44:29.688Z,100613.35
2022-08-30T16:46:59.607Z,100612.66
2022-08-30T16:49:33.284Z,100609.59
2022-08-30T16:52:08.449Z,100612.41
2022-08-30T16:54:38.221Z,100611.35
2022-08-30T16:57:08.007Z,100608.41
2022-08-30T16:59:38.327Z,100610.07
2022-08-30T17:02:08.600Z,100610.27
2022-08-30T17:04:42.304Z,100608.66
2022-08-30T17:07:18.519Z,100609.30
2022-08-30T17:10:00.773Z,100611.66
2022-08-30T17:12:40.467Z,100612.91
2022-08-30T17:15:11.336Z,100607.33
2022-08-30T17:17:43.351Z,100609.09
2022-08-30T17:20:14.955Z,100612.13
2022-08-30T17:22:47.963Z,100617.81
2022-08-30T17:25:34.045Z,100615.56
2022-08-30T17:28:08.772Z,100613.46
2022-08-30T17:30:38.556Z,100613.52
2022-08-30T17:33:23.492Z,100615.52
2022-08-30T17:36:00.062Z,100622.66
2022-08-30T17:38:31.880Z,100624.05
2022-08-30T17:41:09.363Z,100622.23
2022-08-30T17:43:41.243Z,100627.92
2022-08-30T17:46:21.606Z,100626.95
2022-08-30T17:49:01.222Z,100633.79
2022-08-30T17:51:35.982Z,100638.17
2022-08-30T17:54:05.744Z,100639.84
2022-08-30T17:56:35.588Z,100643.77
2022-08-30T17:59:08.076Z,100639.16
2022-08-30T18:01:39.397Z,100643.66
2022-08-30T18:04:10.834Z,100647.31
2022-08-30T18:06:40.048Z,100649.56
2022-08-30T18:09:09.685Z,100651.44
2022-08-30T18:11:40.635Z,100651.58
2022-08-30T18:14:11.558Z,100653.55
2022-08-30T18:16:49.689Z,100653.92
2022-08-30T18:19:28.882Z,100658.38
2022-08-30T18:21:58.621Z,100658.60
2022-08-30T18:24:28.027Z,100657.70
2022-08-30T18:26:57.099Z,100655.85
2022-08-30T18:29:31.109Z,100657.98
2022-08-30T18:32:02.412Z,100660.45
2022-08-30T18:34:31.703Z,100658.54
2022-08-30T18:37:00.397Z,100662.11
2022-08-30T18:39:34.521Z,100664.23
2022-08-30T18:42:07.172Z,100659.23
2022-08-30T18:44:52.659Z,100661.27
2022-08-30T18:47:23.883Z,100665.31
2022-08-30T18:49:54.397Z,100663.59
2022-08-30T18:52:25.673Z,100662.17
2022-08-30T18:54:55.108Z,100666.02
2022-08-30T18:57:29.300Z,100666.63
2022-08-30T19:04:35.632Z,100671.12
2022-08-30T19:07:08.222Z,100674.36
2022-08-30T19:14:07.020Z,100676.72
2022-08-30T19:16:50.280Z,100676.83
2022-08-30T19:19:19.387Z,100677.36
2022-08-30T19:21:49.468Z,100679.23
2022-08-30T19:24:19.697Z,100683.00
2022-08-30T19:26:49.346Z,100683.04
2022-08-30T19:29:18.222Z,100679.73
2022-08-30T19:31:47.605Z,100680.46
2022-08-30T19:34:16.482Z,100680.90
2022-08-30T19:36:45.805Z,100680.52
2022-08-30T19:39:16.061Z,100679.94
2022-08-30T19:41:46.381Z,100677.88
2022-08-30T19:44:15.502Z,100676.84
2022-08-30T19:46:44.553Z,100680.41
2022-08-30T19:49:13.597Z,100680.60
2022-08-30T19:51:46.793Z,100677.12
2022-08-30T19:54:16.324Z,100678.72
2022-08-30T19:56:46.058Z,100681.59
2022-08-30T19:59:30.774Z,100680.66
2022-08-30T20:02:00.399Z,100684.80
2022-08-30T20:04:29.928Z,100687.34
2022-08-30T20:06:59.861Z,100684.96
2022-08-30T20:09:32.053Z,100686.05
2022-08-30T20:12:02.061Z,100684.39
2022-08-30T20:14:30.899Z,100683.61
2022-08-30T20:16:59.647Z,100679.75
2022-08-30T20:19:32.379Z,100679.25
2022-08-30T20:22:07.616Z,100678.11
2022-08-30T20:24:37.778Z,100683.11
2022-08-30T20:27:08.408Z,100680.99
2022-08-30T20:29:38.281Z,100682.12
2022-08-30T20:32:20.900Z,100686.32
2022-08-30T20:34:50.427Z,100687.29
2022-08-30T20:37:23.383Z,100685.67
2022-08-30T20:40:10.279Z,100682.46
2022-08-30T20:42:45.885Z,100681.55
2022-08-30T20:45:17.558Z,100684.91
2022-08-30T20:47:46.824Z,100686.27
2022-08-30T20:50:17.031Z,100687.46
2022-08-30T20:52:47.305Z,100690.80
2022-08-30T20:55:30.040Z,100690.45
2022-08-30T20:57:59.215Z,100688.54
2022-08-30T21:00:28.010Z,100687.25
2022-08-30T21:02:57.385Z,100690.95
2022-08-30T21:05:27.723Z,100692.33
2022-08-30T21:07:56.408Z,100692.45
2022-08-30T21:10:26.115Z,100695.27
2022-08-30T21:12:55.369Z,100696.27
2022-08-30T21:15:37.349Z,100697.98
2022-08-30T21:18:20.657Z,100704.95
2022-08-30T21:20:49.787Z,100706.19
2022-08-30T21:23:18.505Z,100706.33
2022-08-30T21:25:47.395Z,100708.23
2022-08-30T21:28:17.627Z,100708.04
2022-08-30T21:30:46.708Z,100706.27
2022-08-30T21:33:15.631Z,100705.95
2022-08-30T21:36:02.682Z,100708.46
2022-08-30T21:38:45.121Z,100706.02
2022-08-30T21:41:15.381Z,100708.35
2022-08-30T21:43:44.418Z,100708.98
2022-08-30T21:46:13.579Z,100710.64
2022-08-30T21:48:42.500Z,100709.05
2022-08-30T21:51:12.579Z,100706.23
2022-08-30T21:53:41.771Z,100699.96
2022-08-30T21:56:21.511Z,100697.38
2022-08-30T21:58:51.258Z,100697.98
2022-08-30T22:01:26.354Z,100691.24
2022-08-30T22:03:57.757Z,100691.89
2022-08-30T22:06:30.651Z,100690.05
2022-08-30T22:09:15.833Z,100691.55
2022-08-30T22:11:58.478Z,100694.67
2022-08-30T22:14:32.078Z,100698.91
2022-08-30T22:17:01.875Z,100696.39
2022-08-30T22:19:31.531Z,100696.13
2022-08-30T22:22:02.855Z,100692.90
2022-08-30T22:24:32.864Z,100697.05
2022-08-30T22:27:03.605Z,100698.15
2022-08-30T22:29:34.009Z,100697.84
2022-08-30T22:32:03.730Z,100697.42
2022-08-30T22:34:33.215Z,100696.73
2022-08-30T22:37:02.011Z,100695.45
2022-08-30T22:39:30.979Z,100692.77
2022-08-30T22:42:13.837Z,100692.16
2022-08-30T22:44:56.230Z,100692.85
2022-08-30T22:47:25.055Z,100691.75
2022-08-30T22:49:54.122Z,100691.77
2022-08-30T22:52:24.144Z,100693.17
2022-08-30T22:54:54.464Z,100693.21
2022-08-30T22:57:23.904Z,100692.80
2022-08-30T23:00:15.592Z,100694.55
2022-08-30T23:02:45.969Z,100691.15
2022-08-30T23:05:16.700Z,100691.20
2022-08-30T23:07:45.617Z,100692.59
2022-08-30T23:10:28.947Z,100694.77
2022-08-30T23:13:12.082Z,100693.15
2022-08-30T23:15:54.530Z,100695.16
2022-08-30T23:18:23.348Z,100695.95
2022-08-30T23:20:52.404Z,100698.61
2022-08-30T23:23:39.688Z,100695.48
2022-08-30T23:26:27.361Z,100700.75
2022-08-30T23:29:28.216Z,100701.34
2022-08-30T23:32:30.423Z,100700.70
2022-08-30T23:35:17.961Z,100696.15
2022-08-30T23:38:07.790Z,100699.98
2022-08-30T23:40:55.187Z,100699.44
2022-08-30T23:43:42.442Z,100696.13
2022-08-30T23:46:29.746Z,100693.58
2022-08-30T23:49:31.194Z,100694.02
2022-08-30T23:52:18.598Z,100694.84
2022-08-30T23:55:05.841Z,100698.06
2022-08-30T23:58:06.795Z,100700.78
